Time;durP1;ratioP1;P1;durP2;ratioP2;P2;SDS_P1;SDS_P2;PMS_P1;PMS_P2;Temp;Humidity;BMP_temperature;BMP_pressure;BME280_temperature;BME280_humidity;BME280_pressure;Samples;Min_cycle;Max_cycle;Signal;HPM_P1;HPM_P2
2021/05/02 00:01:49;;;;;;;4.25;1.83;;;16.40;86.10;;;;;;5092884;28;20382;-79
2021/05/02 00:04:15;;;;;;;3.22;1.60;;;16.40;86.30;;;;;;5092349;28;20016;-79
2021/05/02 00:06:41;;;;;;;6.60;2.55;;;16.40;86.60;;;;;;5093584;28;20020;-78
2021/05/02 00:09:08;;;;;;;5.00;2.72;;;16.40;86.80;;;;;;5092426;28;20051;-79
2021/05/02 00:11:34;;;;;;;7.55;4.20;;;16.30;87.60;;;;;;5094131;28;20024;-78
2021/05/02 00:14:02;;;;;;;13.70;4.90;;;16.30;88.70;;;;;;5091760;28;20040;-79
2021/05/02 00:16:28;;;;;;;10.35;4.50;;;16.20;88.60;;;;;;5093968;28;20027;-78
2021/05/02 00:18:54;;;;;;;13.88;5.35;;;16.20;89.50;;;;;;5093868;28;20028;-78
2021/05/02 00:21:20;;;;;;;20.05;6.82;;;16.10;90.20;;;;;;5092289;28;20024;-79
2021/05/02 00:23:47;;;;;;;21.58;7.68;;;16.00;90.40;;;;;;5093633;28;20098;-78
2021/05/02 00:26:12;;;;;;;20.35;7.70;;;16.00;90.80;;;;;;5091931;28;20016;-78
2021/05/02 00:28:44;;;;;;;20.98;7.97;;;16.00;91.10;;;;;;5091572;28;20039;-78
2021/05/02 00:31:10;;;;;;;21.05;7.90;;;16.00;91.40;;;;;;5091928;28;20422;-78
2021/05/02 00:33:36;;;;;;;23.38;8.10;;;16.00;91.70;;;;;;5091791;28;20133;-78
2021/05/02 00:36:06;;;;;;;24.13;8.18;;;15.90;91.90;;;;;;5093575;28;20020;-78
2021/05/02 00:38:37;;;;;;;23.95;8.40;;;15.90;92.10;;;;;;5091063;28;20020;-79
2021/05/02 00:41:17;;;;;;;22.45;8.27;;;15.90;92.30;;;;;;5093292;28;20024;-77
2021/05/02 00:44:16;;;;;;;17.98;7.47;;;15.90;92.30;;;;;;5092378;28;20412;-77
2021/05/02 00:46:57;;;;;;;25.20;8.43;;;15.90;92.30;;;;;;5087927;28;20103;-77
2021/05/02 00:49:36;;;;;;;18.77;8.43;;;15.90;92.30;;;;;;5092183;28;20081;-77
2021/05/02 00:52:10;;;;;;;19.95;7.50;;;15.90;92.30;;;;;;5093456;28;20048;-77
2021/05/02 00:54:38;;;;;;;18.48;8.10;;;15.90;92.40;;;;;;5092178;28;20024;-77
2021/05/02 00:57:10;;;;;;;15.82;6.75;;;15.90;92.40;;;;;;5092218;28;20024;-77
2021/05/02 00:59:49;;;;;;;16.80;7.63;;;15.80;92.30;;;;;;5092341;28;20569;-78
2021/05/02 01:02:16;;;;;;;18.58;7.75;;;15.80;92.30;;;;;;5092031;28;20111;-77
2021/05/02 01:04:44;;;;;;;19.63;8.98;;;15.80;92.40;;;;;;5093056;28;20020;-78
2021/05/02 01:07:19;;;;;;;21.25;9.50;;;15.70;92.50;;;;;;5091800;28;20016;-78
2021/05/02 01:09:46;;;;;;;23.40;10.07;;;15.70;92.70;;;;;;5092119;28;20020;-78
2021/05/02 01:12:14;;;;;;;26.95;10.63;;;15.60;92.80;;;;;;5091347;28;20024;-78
2021/05/02 01:14:45;;;;;;;19.52;9.48;;;15.60;93.00;;;;;;5091480;28;20035;-78
2021/05/02 01:17:13;;;;;;;17.05;7.90;;;15.50;93.20;;;;;;5093369;28;20031;-77
2021/05/02 01:19:39;;;;;;;12.70;6.50;;;15.40;93.20;;;;;;5092244;28;20110;-76
2021/05/02 01:22:11;;;;;;;26.52;16.45;;;15.30;93.20;;;;;;5093218;28;20103;-79
2021/05/02 01:24:37;;;;;;;16.70;11.35;;;15.30;93.30;;;;;;5092555;28;20012;-77
2021/05/02 01:27:04;;;;;;;59.80;32.00;;;15.30;93.50;;;;;;5091743;28;20533;-78
2021/05/02 01:29:29;;;;;;;40.38;22.40;;;15.20;93.60;;;;;;5091490;28;20077;-78
2021/05/02 01:31:56;;;;;;;19.65;11.80;;;15.20;93.60;;;;;;5091691;28;20102;-78
2021/05/02 01:34:22;;;;;;;12.05;6.10;;;15.20;93.70;;;;;;5092978;28;20016;-78
2021/05/02 01:36:47;;;;;;;11.10;6.55;;;15.20;93.80;;;;;;5090503;28;20146;-78
2021/05/02 01:39:13;;;;;;;11.60;5.85;;;15.10;93.90;;;;;;5091264;28;20068;-78
2021/05/02 01:41:39;;;;;;;11.82;6.45;;;15.10;93.90;;;;;;5092251;28;20028;-78
2021/05/02 01:44:05;;;;;;;7.88;5.35;;;15.00;94.10;;;;;;5091682;28;20020;-78
2021/05/02 01:46:38;;;;;;;6.30;3.50;;;15.00;94.30;;;;;;5092908;28;20020;-78
2021/05/02 01:49:09;;;;;;;8.20;4.32;;;15.00;94.40;;;;;;5091798;28;20034;-77
2021/05/02 01:51:36;;;;;;;22.48;8.88;;;14.90;94.50;;;;;;5089076;28;20020;-78
2021/05/02 01:54:02;;;;;;;53.95;19.75;;;14.90;94.60;;;;;;5092853;28;20024;-78
2021/05/02 01:56:30;;;;;;;30.67;11.88;;;14.90;94.70;;;;;;5093374;28;20367;-78
2021/05/02 01:58:57;;;;;;;15.23;7.00;;;14.90;94.70;;;;;;5096617;28;20115;-77
2021/05/02 02:01:26;;;;;;;10.93;5.95;;;14.90;94.80;;;;;;5096734;28;20024;-77
2021/05/02 02:03:54;;;;;;;12.65;6.45;;;14.90;94.90;;;;;;5096779;28;20011;-77
2021/05/02 02:06:20;;;;;;;10.18;4.88;;;14.90;95.00;;;;;;5096975;28;20032;-77
2021/05/02 02:08:46;;;;;;;6.32;4.00;;;14.90;95.00;;;;;;5079959;28;20024;-78
2021/05/02 02:11:12;;;;;;;7.13;3.60;;;14.90;95.10;;;;;;5095735;28;20031;-78
2021/05/02 02:13:38;;;;;;;7.10;4.13;;;15.00;95.10;;;;;;5077172;28;20041;-78
2021/05/02 02:16:06;;;;;;;8.05;4.50;;;15.00;95.20;;;;;;5086044;28;20426;-78
2021/05/02 02:18:32;;;;;;;7.95;4.38;;;15.00;95.20;;;;;;5095973;28;20032;-78
2021/05/02 02:21:00;;;;;;;7.38;4.60;;;15.00;95.20;;;;;;5087260;28;20020;-78
2021/05/02 02:23:33;;;;;;;7.18;4.45;;;15.00;95.20;;;;;;5091797;28;20021;-78
2021/05/02 02:26:19;;;;;;;8.00;4.90;;;15.00;95.20;;;;;;5094496;28;20019;-78
2021/05/02 02:28:47;;;;;;;7.00;4.88;;;15.00;95.20;;;;;;5093737;28;20047;-78
2021/05/02 02:31:14;;;;;;;8.30;5.97;;;15.00;95.30;;;;;;5112097;28;20028;-78
2021/05/02 02:33:42;;;;;;;11.52;7.65;;;15.10;95.50;;;;;;5094735;28;20024;-77
2021/05/02 02:36:11;;;;;;;12.60;8.80;;;15.10;95.60;;;;;;5074917;28;20102;-78
2021/05/02 02:38:37;;;;;;;18.83;12.80;;;15.10;95.60;;;;;;5088425;28;20038;-77
2021/05/02 02:41:04;;;;;;;21.23;14.15;;;15.10;95.70;;;;;;5096098;28;20030;-77
2021/05/02 02:43:31;;;;;;;16.90;10.73;;;15.10;95.70;;;;;;5096463;28;20335;-77
2021/05/02 02:46:04;;;;;;;17.63;10.98;;;15.10;95.70;;;;;;5095562;28;20024;-77
2021/05/02 02:48:31;;;;;;;15.23;9.38;;;15.10;95.70;;;;;;5095804;28;20020;-77
2021/05/02 02:51:03;;;;;;;11.38;8.27;;;15.10;95.80;;;;;;5095561;28;20023;-77
2021/05/02 02:53:32;;;;;;;11.27;7.47;;;15.20;95.80;;;;;;5085274;28;20024;-78
2021/05/02 02:56:03;;;;;;;9.00;7.03;;;15.20;95.80;;;;;;5092653;28;20035;-78
2021/05/02 02:59:01;;;;;;;10.48;7.28;;;15.20;95.90;;;;;;5085689;28;20119;-77
2021/05/02 03:01:27;;;;;;;10.93;7.03;;;15.20;95.90;;;;;;5059257;28;20378;-78
2021/05/02 03:03:55;;;;;;;10.77;8.13;;;15.20;96.10;;;;;;5084591;28;20016;-78
2021/05/02 03:06:25;;;;;;;10.32;7.15;;;15.20;96.20;;;;;;5091483;28;20024;-78
2021/05/02 03:08:54;;;;;;;9.77;6.35;;;15.20;96.30;;;;;;5094341;28;20027;-78
2021/05/02 03:11:19;;;;;;;9.60;6.72;;;15.30;96.30;;;;;;5079852;28;20063;-78
2021/05/02 03:13:46;;;;;;;8.70;6.10;;;15.40;96.40;;;;;;5095675;28;20075;-77
2021/05/02 03:16:12;;;;;;;10.98;6.63;;;15.40;96.40;;;;;;5081337;28;20020;-78
2021/05/02 03:19:03;;;;;;;9.20;6.13;;;15.40;96.40;;;;;;5090011;28;20021;-78
2021/05/02 03:21:46;;;;;;;11.60;6.03;;;15.60;96.50;;;;;;5073945;28;20111;-78
2021/05/02 03:24:14;;;;;;;8.30;5.95;;;15.70;96.60;;;;;;5085132;28;20047;-78
2021/05/02 03:26:41;;;;;;;9.63;6.32;;;15.80;96.40;;;;;;5091211;28;20020;-77
2021/05/02 03:29:11;;;;;;;8.90;5.63;;;15.90;96.00;;;;;;5086554;28;20416;-77
2021/05/02 03:31:38;;;;;;;10.38;6.03;;;15.90;95.70;;;;;;5089032;28;20016;-77
2021/05/02 03:34:09;;;;;;;7.85;5.68;;;15.90;95.60;;;;;;5081000;28;20024;-77
2021/05/02 03:36:39;;;;;;;11.02;6.22;;;15.90;95.50;;;;;;5095097;28;20447;-77
2021/05/02 03:39:06;;;;;;;9.38;6.65;;;16.00;95.30;;;;;;5073893;28;20521;-77
2021/05/02 03:41:34;;;;;;;7.50;5.68;;;15.90;95.30;;;;;;5090360;28;20451;-77
2021/05/02 03:44:00;;;;;;;8.55;6.25;;;16.00;95.30;;;;;;5089872;28;20100;-78
2021/05/02 03:46:26;;;;;;;11.15;6.15;;;16.00;95.20;;;;;;5089793;28;20112;-77
2021/05/02 03:49:06;;;;;;;9.80;6.85;;;16.00;95.20;;;;;;5090512;28;20031;-78
2021/05/02 03:51:34;;;;;;;9.75;6.72;;;16.00;95.30;;;;;;5095096;28;20043;-78
2021/05/02 03:54:00;;;;;;;10.77;7.00;;;16.00;95.30;;;;;;5094097;28;20012;-78
2021/05/02 03:56:43;;;;;;;11.60;7.40;;;16.10;95.30;;;;;;5084705;28;20021;-78
2021/05/02 03:59:21;;;;;;;11.90;8.57;;;16.10;95.20;;;;;;5092513;28;20076;-78
2021/05/02 04:01:56;;;;;;;12.65;8.98;;;16.20;95.20;;;;;;5094817;28;20123;-77
2021/05/02 04:04:33;;;;;;;14.65;10.65;;;16.20;95.10;;;;;;5094839;28;20048;-78
2021/05/02 04:06:59;;;;;;;18.88;14.40;;;16.30;95.10;;;;;;5080283;28;20032;-78
2021/05/02 04:09:25;;;;;;;17.92;13.23;;;16.40;94.90;;;;;;5092939;28;20050;-78
2021/05/02 04:11:51;;;;;;;22.42;16.05;;;16.40;95.00;;;;;;5093850;28;20029;-78
2021/05/02 04:14:17;;;;;;;18.25;13.30;;;16.50;95.20;;;;;;5081453;28;20055;-77
2021/05/02 04:16:43;;;;;;;19.30;14.43;;;16.60;95.00;;;;;;5075429;28;20027;-77
2021/05/02 04:19:10;;;;;;;19.05;12.50;;;16.70;94.90;;;;;;5082997;28;20025;-77
2021/05/02 04:21:37;;;;;;;17.40;12.20;;;16.70;94.60;;;;;;5090647;28;20029;-77
2021/05/02 04:24:03;;;;;;;15.25;10.93;;;16.70;94.50;;;;;;5085252;28;20048;-77
2021/05/02 04:26:29;;;;;;;15.25;9.73;;;16.80;94.50;;;;;;5087549;28;20089;-77
2021/05/02 04:28:55;;;;;;;11.02;8.10;;;17.00;94.70;;;;;;5092454;28;20028;-77
2021/05/02 04:31:21;;;;;;;11.38;7.18;;;17.30;95.00;;;;;;5110130;28;20020;-77
2021/05/02 04:33:47;;;;;;;11.43;8.15;;;17.70;94.90;;;;;;5092279;28;20510;-77
2021/05/02 04:36:13;;;;;;;11.15;7.40;;;17.90;93.80;;;;;;5093794;28;20016;-78
2021/05/02 04:38:39;;;;;;;11.90;7.60;;;18.10;92.70;;;;;;5092665;28;20020;-77
2021/05/02 04:41:05;;;;;;;12.23;7.97;;;18.10;91.80;;;;;;5093837;28;20031;-78
2021/05/02 04:43:31;;;;;;;10.90;7.40;;;18.10;91.30;;;;;;5093697;28;20016;-77
2021/05/02 04:45:57;;;;;;;12.50;8.18;;;18.20;91.30;;;;;;5092319;28;20362;-77
2021/05/02 04:48:23;;;;;;;11.35;7.65;;;18.20;90.80;;;;;;5092143;28;20489;-77
2021/05/02 04:50:48;;;;;;;13.50;8.30;;;18.30;90.80;;;;;;5073515;28;20021;-77
2021/05/02 04:53:14;;;;;;;12.68;8.88;;;18.50;91.60;;;;;;5071915;28;20104;-78
2021/05/02 04:55:40;;;;;;;13.30;9.10;;;18.80;91.10;;;;;;5089236;28;20027;-78
2021/05/02 04:58:06;;;;;;;14.88;10.27;;;19.00;89.70;;;;;;5093232;28;20023;-77
2021/05/02 05:00:33;;;;;;;16.55;10.43;;;19.20;87.20;;;;;;5092894;28;20020;-77
2021/05/02 05:02:59;;;;;;;14.25;10.57;;;19.00;85.40;;;;;;5092991;28;20050;-78
2021/05/02 05:05:25;;;;;;;16.90;10.18;;;19.20;87.60;;;;;;5092153;28;20058;-78
2021/05/02 05:07:50;;;;;;;14.20;10.45;;;19.70;88.80;;;;;;5091543;28;20374;-78
2021/05/02 05:10:16;;;;;;;15.88;11.02;;;20.30;86.50;;;;;;5085764;28;20416;-78
2021/05/02 05:12:42;;;;;;;15.63;11.05;;;21.00;85.60;;;;;;5085108;28;20123;-78
2021/05/02 05:15:09;;;;;;;15.60;10.30;;;21.60;83.10;;;;;;5092921;28;20534;-78
2021/05/02 05:17:35;;;;;;;15.55;10.60;;;22.20;79.20;;;;;;5091774;28;20085;-78
2021/05/02 05:20:03;;;;;;;16.85;10.65;;;22.70;76.80;;;;;;5091588;28;20051;-78
2021/05/02 05:22:28;;;;;;;16.27;10.95;;;23.10;73.50;;;;;;5092468;28;20080;-78
2021/05/02 05:24:54;;;;;;;15.15;11.30;;;23.20;70.70;;;;;;5092771;28;20024;-78
2021/05/02 05:27:20;;;;;;;16.80;12.20;;;23.10;69.00;;;;;;5093346;28;20474;-78
2021/05/02 05:29:45;;;;;;;19.00;12.18;;;23.00;68.80;;;;;;5092670;28;20024;-78
2021/05/02 05:32:11;;;;;;;15.05;10.60;;;22.70;68.30;;;;;;5071811;28;20462;-78
2021/05/02 05:34:37;;;;;;;18.15;12.40;;;22.30;68.60;;;;;;5087922;28;20017;-78
2021/05/02 05:37:03;;;;;;;14.13;11.77;;;21.90;69.30;;;;;;5089283;28;20047;-78
2021/05/02 05:39:28;;;;;;;16.30;12.75;;;21.60;70.30;;;;;;5093055;28;20024;-78
2021/05/02 05:41:54;;;;;;;17.15;13.05;;;21.30;71.40;;;;;;5091517;28;20024;-78
2021/05/02 05:44:20;;;;;;;16.98;13.40;;;21.10;72.00;;;;;;5092764;28;20060;-78
2021/05/02 05:46:45;;;;;;;16.80;13.57;;;21.00;73.30;;;;;;5078445;28;20025;-78
2021/05/02 05:49:13;;;;;;;18.60;12.98;;;21.30;74.50;;;;;;5087670;28;20019;-78
2021/05/02 05:51:39;;;;;;;17.42;11.85;;;21.70;74.20;;;;;;5088046;28;20032;-78
2021/05/02 05:54:04;;;;;;;19.30;11.68;;;22.00;72.50;;;;;;5090874;28;20036;-79
2021/05/02 05:56:30;;;;;;;17.00;12.27;;;22.40;72.10;;;;;;5092489;28;20526;-78
2021/05/02 05:58:56;;;;;;;14.65;11.00;;;23.00;70.80;;;;;;5076995;28;20032;-78
2021/05/02 06:01:21;;;;;;;15.52;11.77;;;23.70;69.00;;;;;;5092363;28;20023;-78
2021/05/02 06:03:47;;;;;;;13.68;10.80;;;24.20;67.10;;;;;;5092619;28;20031;-78
2021/05/02 06:06:13;;;;;;;15.20;11.80;;;24.30;63.60;;;;;;5076919;28;20073;-78
2021/05/02 06:08:38;;;;;;;16.45;11.70;;;24.20;63.50;;;;;;5084001;28;20035;-78
2021/05/02 06:11:04;;;;;;;15.00;11.35;;;24.10;63.20;;;;;;5087987;28;20017;-78
2021/05/02 06:13:30;;;;;;;11.85;8.85;;;23.70;63.40;;;;;;5091128;28;20040;-78
2021/05/02 06:15:55;;;;;;;14.48;10.35;;;23.40;62.90;;;;;;5080576;28;20027;-78
2021/05/02 06:18:21;;;;;;;16.33;10.98;;;23.10;63.10;;;;;;5090392;28;20477;-78
2021/05/02 06:20:47;;;;;;;13.73;10.45;;;23.00;63.90;;;;;;5091953;28;20035;-78
2021/05/02 06:23:12;;;;;;;14.70;10.55;;;22.90;64.50;;;;;;5076739;28;20028;-78
2021/05/02 06:25:38;;;;;;;15.90;10.57;;;22.90;64.20;;;;;;5092558;28;20020;-78
2021/05/02 06:28:04;;;;;;;14.73;10.50;;;22.90;64.20;;;;;;5078451;28;20115;-78
2021/05/02 06:30:30;;;;;;;16.33;10.02;;;22.80;65.00;;;;;;5087136;28;20028;-78
2021/05/02 06:32:56;;;;;;;12.60;9.25;;;22.70;64.40;;;;;;5087727;28;20021;-78
2021/05/02 06:35:21;;;;;;;13.57;9.25;;;22.60;64.10;;;;;;5089969;28;20151;-78
2021/05/02 06:37:47;;;;;;;14.77;9.35;;;22.40;63.90;;;;;;5082307;28;20107;-78
2021/05/02 06:40:13;;;;;;;16.80;10.45;;;22.10;64.00;;;;;;5086641;28;20107;-78
2021/05/02 06:42:39;;;;;;;14.65;10.40;;;22.00;64.80;;;;;;5084996;28;20124;-77
2021/05/02 06:45:05;;;;;;;14.00;10.38;;;21.90;65.40;;;;;;5091383;28;20502;-78
2021/05/02 06:47:31;;;;;;;15.25;10.70;;;21.80;66.10;;;;;;5094611;28;20055;-78
2021/05/02 06:49:57;;;;;;;15.02;10.57;;;21.90;66.60;;;;;;5095840;28;20043;-78
2021/05/02 06:52:23;;;;;;;13.65;10.32;;;22.00;66.20;;;;;;5080080;28;20046;-78
2021/05/02 06:54:48;;;;;;;15.60;9.85;;;21.90;66.50;;;;;;5094996;28;20055;-78
2021/05/02 06:57:14;;;;;;;18.60;10.02;;;21.90;66.50;;;;;;5079835;28;20027;-78
2021/05/02 06:59:41;;;;;;;13.32;9.30;;;21.90;66.60;;;;;;5094957;28;20458;-78
2021/05/02 07:02:07;;;;;;;13.75;10.07;;;22.00;66.50;;;;;;5095276;28;20016;-77
2021/05/02 07:04:34;;;;;;;14.25;10.25;;;22.00;66.50;;;;;;5094436;28;20051;-76
2021/05/02 07:07:01;;;;;;;12.32;8.13;;;21.90;66.80;;;;;;5086928;28;20020;-80
2021/05/02 07:09:27;;;;;;;14.80;10.60;;;21.90;67.00;;;;;;5089142;28;20032;-79
2021/05/02 07:11:53;;;;;;;13.43;9.90;;;21.90;67.60;;;;;;5074121;28;20017;-80
2021/05/02 07:14:18;;;;;;;11.43;8.40;;;22.00;67.60;;;;;;5090771;28;20051;-80
2021/05/02 07:16:44;;;;;;;11.75;8.15;;;22.20;67.40;;;;;;5090437;28;20346;-80
2021/05/02 07:19:10;;;;;;;13.98;9.82;;;22.20;66.20;;;;;;5090652;28;20028;-80
2021/05/02 07:21:36;;;;;;;15.57;8.02;;;22.30;66.50;;;;;;5093796;28;20024;-79
2021/05/02 07:24:02;;;;;;;11.20;8.05;;;22.50;66.30;;;;;;5086502;28;20039;-80
2021/05/02 07:26:27;;;;;;;12.90;8.30;;;22.60;65.20;;;;;;5090552;28;20027;-80
2021/05/02 07:28:53;;;;;;;15.73;10.00;;;22.60;64.70;;;;;;5090114;28;20032;-80
2021/05/02 07:31:19;;;;;;;12.02;8.45;;;22.60;65.60;;;;;;5094031;28;20016;-80
2021/05/02 07:33:45;;;;;;;13.77;9.48;;;22.70;64.70;;;;;;5093018;28;20519;-80
2021/05/02 07:36:13;;;;;;;14.68;8.68;;;22.80;64.80;;;;;;5084219;28;20013;-80
2021/05/02 07:38:39;;;;;;;12.68;7.93;;;22.90;64.20;;;;;;5091333;28;20033;-79
2021/05/02 07:41:05;;;;;;;13.43;9.20;;;22.90;64.30;;;;;;5085888;28;20416;-80
2021/05/02 07:43:33;;;;;;;14.80;8.73;;;22.90;64.50;;;;;;5089020;28;20077;-80
2021/05/02 07:45:59;;;;;;;11.65;8.80;;;22.90;64.20;;;;;;5073538;28;20108;-80
2021/05/02 07:48:25;;;;;;;13.77;9.00;;;22.70;63.70;;;;;;5090222;28;20481;-80
2021/05/02 07:50:50;;;;;;;12.45;8.20;;;22.60;64.80;;;;;;5089705;28;20012;-80
2021/05/02 07:53:20;;;;;;;14.00;8.90;;;22.60;64.60;;;;;;5090433;28;20074;-80
2021/05/02 07:55:46;;;;;;;13.57;8.35;;;22.40;64.30;;;;;;5091770;28;20024;-81
2021/05/02 07:58:12;;;;;;;17.50;10.90;;;22.30;63.90;;;;;;5084547;28;20429;-80
2021/05/02 08:00:38;;;;;;;14.75;10.40;;;22.20;63.90;;;;;;5088773;28;20024;-80
2021/05/02 08:03:04;;;;;;;16.70;10.70;;;22.00;63.80;;;;;;5093964;28;20450;-80
2021/05/02 08:05:31;;;;;;;17.73;10.52;;;22.00;64.50;;;;;;5084389;28;20032;-80
2021/05/02 08:07:57;;;;;;;17.98;9.60;;;21.90;65.50;;;;;;5091004;28;20028;-80
2021/05/02 08:10:23;;;;;;;18.05;10.30;;;22.00;65.70;;;;;;5086295;28;20367;-80
2021/05/02 08:12:55;;;;;;;13.38;9.27;;;22.00;66.10;;;;;;5089674;28;20161;-80
2021/05/02 08:15:22;;;;;;;20.23;9.70;;;22.00;66.00;;;;;;5075799;28;20025;-80
2021/05/02 08:17:48;;;;;;;18.55;9.55;;;21.90;66.30;;;;;;5086367;28;20024;-80
2021/05/02 08:20:14;;;;;;;19.73;10.18;;;21.90;66.40;;;;;;5109539;28;20468;-79
2021/05/02 08:22:40;;;;;;;16.95;9.50;;;21.80;65.80;;;;;;5089125;28;20025;-79
2021/05/02 08:25:07;;;;;;;17.90;9.95;;;21.80;66.30;;;;;;5091537;28;20141;-79
2021/05/02 08:27:33;;;;;;;14.90;9.35;;;21.70;66.50;;;;;;5083668;28;20370;-80
2021/05/02 08:29:59;;;;;;;17.65;10.07;;;21.70;67.30;;;;;;5089450;28;20029;-80
2021/05/02 08:32:25;;;;;;;20.73;9.63;;;21.80;66.30;;;;;;5086215;28;20020;-79
2021/05/02 08:34:51;;;;;;;20.70;8.27;;;21.70;66.30;;;;;;5089300;28;20016;-79
2021/05/02 08:37:17;;;;;;;17.45;9.20;;;21.70;66.20;;;;;;5091948;28;20034;-79
2021/05/02 08:39:43;;;;;;;15.75;10.15;;;21.60;66.20;;;;;;5092451;28;20024;-80
2021/05/02 08:42:08;;;;;;;17.00;10.18;;;21.60;66.40;;;;;;5092367;28;20458;-80
2021/05/02 08:44:35;;;;;;;15.23;10.10;;;21.60;66.80;;;;;;5091883;28;20055;-79
2021/05/02 08:47:00;;;;;;;17.98;10.00;;;21.70;67.30;;;;;;5089484;28;20023;-79
2021/05/02 08:49:26;;;;;;;14.93;10.07;;;21.70;67.60;;;;;;5093858;28;20366;-79
2021/05/02 08:51:52;;;;;;;15.30;11.00;;;21.70;68.10;;;;;;5079533;28;20025;-79
2021/05/02 08:54:19;;;;;;;17.77;10.40;;;21.70;68.50;;;;;;5088846;28;20032;-79
2021/05/02 08:56:45;;;;;;;17.45;9.63;;;21.70;68.70;;;;;;5088881;28;20039;-80
2021/05/02 08:59:12;;;;;;;18.35;11.48;;;21.60;68.40;;;;;;5091441;28;20040;-79
2021/05/02 09:01:39;;;;;;;18.02;10.55;;;21.60;70.40;;;;;;5093381;28;20020;-79
2021/05/02 09:04:06;;;;;;;18.13;10.10;;;21.50;70.70;;;;;;5093613;28;20016;-80
2021/05/02 09:06:33;;;;;;;20.90;10.00;;;21.30;71.30;;;;;;5088211;28;20043;-80
2021/05/02 09:09:07;;;;;;;20.38;11.18;;;21.20;71.50;;;;;;5083131;28;20107;-80
2021/05/02 09:11:46;;;;;;;17.43;12.00;;;21.10;71.90;;;;;;5092645;28;20024;-79
2021/05/02 09:14:19;;;;;;;20.63;11.52;;;21.10;72.50;;;;;;5081308;28;20286;-79
2021/05/02 09:16:53;;;;;;;18.67;11.07;;;21.20;72.90;;;;;;5087997;28;20016;-79
2021/05/02 09:19:21;;;;;;;15.02;9.90;;;21.30;72.40;;;;;;5088933;28;20437;-80
2021/05/02 09:21:47;;;;;;;16.10;10.23;;;21.30;71.80;;;;;;5090335;28;20023;-81
2021/05/02 09:24:32;;;;;;;18.77;9.80;;;21.30;71.40;;;;;;5082929;28;20020;-80
2021/05/02 09:27:11;;;;;;;18.95;9.73;;;21.30;70.50;;;;;;5088269;28;20024;-81
2021/05/02 09:29:38;;;;;;;16.98;10.02;;;21.20;70.50;;;;;;5084795;28;20035;-79
2021/05/02 09:32:05;;;;;;;17.65;9.90;;;21.20;70.80;;;;;;5087871;28;20008;-79
2021/05/02 09:34:31;;;;;;;17.75;10.05;;;21.20;71.50;;;;;;5070950;28;20455;-79
2021/05/02 09:37:05;;;;;;;17.52;9.52;;;21.10;71.50;;;;;;5089995;28;20078;-80
2021/05/02 09:39:53;;;;;;;17.67;11.13;;;21.00;70.30;;;;;;5108991;28;20389;-80
2021/05/02 09:42:32;;;;;;;20.33;10.98;;;20.90;70.20;;;;;;5091328;28;20024;-81
2021/05/02 09:44:59;;;;;;;21.73;13.18;;;20.80;70.30;;;;;;5092792;28;20020;-80
2021/05/02 09:47:38;;;;;;;15.80;10.57;;;20.60;71.10;;;;;;5092830;28;20035;-80
2021/05/02 09:50:17;;;;;;;21.92;12.95;;;20.50;72.30;;;;;;5092950;28;20466;-80
2021/05/02 09:53:05;;;;;;;17.67;12.88;;;20.30;73.70;;;;;;5087578;28;20027;-80
2021/05/02 09:55:32;;;;;;;24.80;15.98;;;20.00;74.60;;;;;;5087299;28;20052;-80
2021/05/02 10:00:59;;;;;;;23.17;14.77;;;19.80;76.80;;;;;;5092209;28;20031;-81
2021/05/02 10:03:26;;;;;;;27.13;14.85;;;19.70;77.30;;;;;;5087748;28;20021;-80
2021/05/02 10:05:58;;;;;;;23.45;15.10;;;19.70;77.80;;;;;;5084514;28;20020;-80
2021/05/02 10:08:28;;;;;;;25.48;15.00;;;19.80;78.20;;;;;;5092309;28;20027;-81
2021/05/02 10:10:58;;;;;;;23.85;14.63;;;19.90;78.50;;;;;;5080065;28;20462;-81
2021/05/02 10:13:25;;;;;;;24.92;17.30;;;19.90;78.70;;;;;;5090753;28;20044;-82
2021/05/02 10:15:51;;;;;;;19.27;12.70;;;20.00;79.30;;;;;;5081139;28;20031;-81
2021/05/02 10:18:17;;;;;;;26.15;14.70;;;20.00;79.00;;;;;;5091701;28;20037;-81
2021/05/02 10:20:44;;;;;;;21.50;13.23;;;20.00;78.80;;;;;;5096346;28;20051;-80
2021/05/02 10:23:10;;;;;;;20.95;12.40;;;19.90;77.70;;;;;;5080202;28;20111;-80
2021/05/02 10:25:40;;;;;;;18.73;12.93;;;19.80;77.30;;;;;;5088567;28;20108;-80
2021/05/02 10:28:07;;;;;;;22.40;12.13;;;19.60;77.70;;;;;;5091720;28;20107;-80
2021/05/02 10:30:38;;;;;;;18.08;11.65;;;19.40;77.90;;;;;;5090957;28;20078;-80
2021/05/02 10:33:14;;;;;;;20.23;11.50;;;19.30;78.30;;;;;;5091983;28;20036;-80
2021/05/02 10:35:58;;;;;;;20.60;11.40;;;19.20;78.20;;;;;;5095647;28;20016;-80
2021/05/02 10:38:44;;;;;;;16.00;10.25;;;19.10;78.30;;;;;;5080971;28;20032;-80
2021/05/02 10:41:23;;;;;;;;;;;19.10;78.60;;;;;;5085183;28;20030;-81
2021/05/02 10:43:50;;;;;;;14.75;9.90;;;19.00;78.30;;;;;;5094609;28;19991;-81
2021/05/02 10:46:43;;;;;;;11.82;7.25;;;18.90;78.60;;;;;;5086361;28;20021;-80
2021/05/02 10:49:33;;;;;;;15.85;9.85;;;18.90;78.40;;;;;;5074321;28;20050;-80
2021/05/02 10:52:27;;;;;;;17.55;10.48;;;18.90;79.40;;;;;;5080176;28;20039;-80
2021/05/02 10:55:06;;;;;;;14.02;10.20;;;18.90;79.20;;;;;;5085194;28;20366;-81
2021/05/02 10:57:36;;;;;;;16.10;10.18;;;18.80;79.50;;;;;;5094186;28;20048;-80
2021/05/02 11:00:13;;;;;;;15.15;9.90;;;18.70;80.70;;;;;;5094273;28;20023;-81
2021/05/02 11:02:44;;;;;;;15.27;11.15;;;18.70;81.30;;;;;;5095368;28;20441;-79
2021/05/02 11:05:11;;;;;;;18.90;10.18;;;18.70;82.00;;;;;;5081618;28;20012;-78
2021/05/02 11:07:42;;;;;;;14.38;10.85;;;18.60;81.70;;;;;;5094504;28;20111;-79
2021/05/02 11:10:11;;;;;;;14.70;10.32;;;18.60;82.10;;;;;;5074554;28;20036;-80
2021/05/02 11:12:37;;;;;;;17.95;11.63;;;18.50;82.30;;;;;;5086299;28;20433;-79
2021/05/02 11:15:25;;;;;;;16.77;12.07;;;18.50;82.90;;;;;;5093920;28;20020;-79
2021/05/02 11:17:53;;;;;;;19.52;12.18;;;18.40;84.30;;;;;;5093884;28;20031;-79
2021/05/02 11:20:45;;;;;;;18.23;12.75;;;18.30;84.20;;;;;;5074728;28;20033;-79
2021/05/02 11:23:11;;;;;;;15.90;10.43;;;18.20;85.10;;;;;;5091057;28;20017;-79
2021/05/02 11:25:40;;;;;;;21.77;12.63;;;18.00;85.90;;;;;;5087624;28;20369;-79
2021/05/02 11:28:10;;;;;;;18.77;14.23;;;17.90;87.30;;;;;;5090845;28;20032;-79
2021/05/02 11:30:45;;;;;;;22.38;13.70;;;17.80;88.30;;;;;;5088966;28;20025;-79
2021/05/02 11:33:24;;;;;;;20.48;14.93;;;17.70;89.50;;;;;;5090554;28;20089;-79
2021/05/02 11:35:53;;;;;;;19.67;14.38;;;17.60;90.10;;;;;;5093992;28;20023;-79
2021/05/02 11:38:22;;;;;;;18.77;16.25;;;17.60;90.20;;;;;;5093852;28;20110;-79
2021/05/02 11:40:57;;;;;;;20.75;15.65;;;17.40;90.60;;;;;;5090006;28;20028;-79
2021/05/02 11:43:28;;;;;;;23.77;16.42;;;17.40;90.80;;;;;;5090731;28;20017;-79
2021/05/02 11:46:04;;;;;;;22.45;16.65;;;17.30;91.00;;;;;;5089988;28;20021;-79
2021/05/02 11:48:33;;;;;;;20.92;15.10;;;17.30;91.30;;;;;;5086367;28;20028;-79
2021/05/02 11:51:04;;;;;;;28.27;20.23;;;17.20;91.60;;;;;;5087880;28;20122;-79
2021/05/02 11:53:36;;;;;;;20.40;16.20;;;17.20;91.90;;;;;;5090185;28;20370;-79
2021/05/02 11:56:19;;;;;;;23.65;15.85;;;17.10;92.10;;;;;;5089782;28;20366;-80
2021/05/02 11:58:46;;;;;;;26.60;17.90;;;17.10;92.30;;;;;;5087870;28;20055;-80
2021/05/02 12:01:30;;;;;;;25.38;17.95;;;17.10;92.60;;;;;;5090548;28;20525;-79
2021/05/02 12:04:07;;;;;;;24.10;18.80;;;17.10;92.80;;;;;;5083454;28;20066;-80
2021/05/02 12:06:35;;;;;;;24.58;20.05;;;17.10;93.10;;;;;;5089121;28;20443;-79
2021/05/02 12:09:10;;;;;;;30.50;21.90;;;17.10;93.50;;;;;;5083141;28;20454;-80
2021/05/02 12:11:35;;;;;;;29.83;22.42;;;17.10;93.80;;;;;;5078793;28;20019;-80
2021/05/02 12:14:01;;;;;;;27.40;19.60;;;17.10;93.80;;;;;;5083958;28;20499;-80
2021/05/02 12:16:29;;;;;;;31.45;22.55;;;17.10;93.90;;;;;;5090454;28;20051;-80
2021/05/02 12:19:07;;;;;;;35.17;24.35;;;17.10;94.10;;;;;;5092952;28;20051;-80
2021/05/02 12:21:37;;;;;;;34.17;25.15;;;17.10;94.40;;;;;;5078628;28;20081;-80
2021/05/02 12:24:27;;;;;;;29.90;22.98;;;17.10;94.60;;;;;;5084868;28;20023;-80
2021/05/02 12:26:56;;;;;;;34.50;23.05;;;17.10;94.60;;;;;;5091059;28;20019;-79
2021/05/02 12:29:25;;;;;;;35.05;24.35;;;17.00;94.80;;;;;;5093795;28;20344;-80
2021/05/02 12:32:00;;;;;;;32.55;23.92;;;17.10;95.00;;;;;;5078332;28;20020;-80
2021/05/02 12:34:35;;;;;;;;;;;17.10;95.00;;;;;;5094181;28;20031;-80
2021/05/02 12:37:13;;;;;;;32.15;23.30;;;17.10;94.80;;;;;;5092236;28;20330;-80
2021/05/02 12:39:40;;;;;;;24.77;21.33;;;17.10;95.10;;;;;;5093869;28;20031;-80
2021/05/02 12:42:07;;;;;;;28.25;22.70;;;17.10;95.30;;;;;;5077553;28;20035;-80
2021/05/02 12:44:35;;;;;;;29.88;21.58;;;17.10;95.50;;;;;;5093723;28;20039;-80
2021/05/02 12:47:18;;;;;;;29.15;21.17;;;17.10;95.50;;;;;;5077977;28;20103;-80